Time;durP1;ratioP1;P1;durP2;ratioP2;P2;SDS_P1;SDS_P2;PMS_P1;PMS_P2;Temp;Humidity;BMP_temperature;BMP_pressure;BME280_temperature;BME280_humidity;BME280_pressure;Samples;Min_cycle;Max_cycle;Signal;HPM_P1;HPM_P2
2023/03/21 00:02:04;;;;;;;112.32;29.15;;;9.20;99.90;;;;;;5089010;28;20465;-76
2023/03/21 00:04:30;;;;;;;108.05;28.73;;;9.20;99.90;;;;;;5089294;28;20408;-76
2023/03/21 00:06:56;;;;;;;103.93;27.45;;;9.20;99.90;;;;;;5088151;28;20436;-76
2023/03/21 00:09:22;;;;;;;101.50;27.05;;;9.20;99.90;;;;;;5107063;28;20431;-76
2023/03/21 00:11:47;;;;;;;107.20;26.45;;;9.10;99.90;;;;;;5088796;28;20492;-76
2023/03/21 00:14:17;;;;;;;80.67;23.90;;;9.20;99.90;;;;;;5088702;28;20400;-76
2023/03/21 00:16:44;;;;;;;116.30;26.30;;;9.20;99.90;;;;;;5107509;28;20430;-76
2023/03/21 00:19:10;;;;;;;100.40;24.55;;;9.10;99.90;;;;;;5088286;28;21030;-76
2023/03/21 00:21:37;;;;;;;109.90;26.02;;;9.10;99.90;;;;;;5090557;28;20499;-76
2023/03/21 00:24:04;;;;;;;92.30;24.70;;;9.20;99.90;;;;;;5092942;28;20571;-76
2023/03/21 00:26:30;;;;;;;95.45;24.88;;;9.20;99.90;;;;;;5112409;27;20495;-76
2023/03/21 00:28:56;;;;;;;94.30;23.73;;;9.10;99.90;;;;;;5092275;28;20405;-76
2023/03/21 00:31:22;;;;;;;75.32;22.27;;;9.10;99.90;;;;;;5091544;28;20408;-76
2023/03/21 00:33:47;;;;;;;74.95;22.30;;;9.10;99.90;;;;;;5092965;28;20921;-76
2023/03/21 00:36:14;;;;;;;80.30;22.37;;;9.20;99.90;;;;;;5112103;27;20508;-76
2023/03/21 00:38:40;;;;;;;74.30;22.20;;;9.10;99.90;;;;;;5110960;28;20493;-76
2023/03/21 00:41:08;;;;;;;80.22;22.02;;;9.10;99.90;;;;;;5092672;28;20940;-76
2023/03/21 00:43:34;;;;;;;79.07;22.13;;;9.20;99.90;;;;;;5092817;28;20400;-76
2023/03/21 00:46:00;;;;;;;74.30;21.38;;;9.20;99.90;;;;;;5091945;28;20983;-76
2023/03/21 00:48:26;;;;;;;73.77;22.10;;;9.20;99.90;;;;;;5084407;28;20402;-77
2023/03/21 00:50:53;;;;;;;79.70;22.30;;;9.20;99.90;;;;;;5108391;28;20442;-76
2023/03/21 00:53:19;;;;;;;73.93;22.13;;;9.20;99.90;;;;;;5092556;28;20415;-76
2023/03/21 00:55:45;;;;;;;70.23;21.50;;;9.20;99.90;;;;;;5110099;28;20428;-77
2023/03/21 00:58:11;;;;;;;66.50;20.90;;;9.20;99.90;;;;;;5089006;28;20791;-76
2023/03/21 01:00:37;;;;;;;66.28;21.02;;;9.20;99.90;;;;;;5108764;27;20400;-76
2023/03/21 01:03:07;;;;;;;62.15;20.15;;;9.20;99.90;;;;;;5110638;27;20925;-76
2023/03/21 01:08:24;;;;;;;62.05;19.75;;;9.20;99.90;;;;;;5110225;28;20403;-76
2023/03/21 01:10:50;;;;;;;64.95;19.70;;;9.20;99.90;;;;;;5110318;28;20897;-76
2023/03/21 01:13:18;;;;;;;61.58;19.63;;;9.20;99.90;;;;;;5109160;27;20533;-76
2023/03/21 01:15:46;;;;;;;53.40;18.87;;;9.20;99.90;;;;;;5110843;27;20764;-76
2023/03/21 01:18:14;;;;;;;60.25;19.52;;;9.20;99.90;;;;;;5110535;27;20442;-76
2023/03/21 01:20:41;;;;;;;64.20;20.05;;;9.20;99.90;;;;;;5108028;27;20766;-76
2023/03/21 01:23:07;;;;;;;59.17;19.42;;;9.20;99.90;;;;;;5111136;27;20769;-76
2023/03/21 01:25:33;;;;;;;64.85;20.45;;;9.20;99.90;;;;;;5100087;27;20922;-76
2023/03/21 01:27:59;;;;;;;56.43;18.43;;;9.20;99.90;;;;;;5113544;27;21030;-76
2023/03/21 01:30:25;;;;;;;65.60;20.10;;;9.20;99.90;;;;;;5110411;27;20396;-77
2023/03/21 01:32:51;;;;;;;60.28;19.60;;;9.20;99.90;;;;;;5109672;27;20440;-76
2023/03/21 01:35:16;;;;;;;61.17;19.08;;;9.20;99.90;;;;;;5109569;27;20476;-76
2023/03/21 01:37:42;;;;;;;60.53;18.77;;;9.20;99.90;;;;;;5109789;27;20420;-76
2023/03/21 01:40:14;;;;;;;71.00;19.92;;;9.20;99.90;;;;;;5112165;27;20405;-76
2023/03/21 01:42:40;;;;;;;78.85;20.27;;;9.20;99.90;;;;;;5109390;27;20396;-76
2023/03/21 01:45:45;;;;;;;77.13;20.77;;;9.20;99.90;;;;;;5109797;28;20413;-76
2023/03/21 01:48:11;;;;;;;82.45;21.80;;;9.20;99.90;;;;;;5071901;28;20419;-76
2023/03/21 01:50:39;;;;;;;95.07;22.27;;;9.30;99.90;;;;;;5111719;27;20396;-77
2023/03/21 01:53:05;;;;;;;106.00;23.60;;;9.30;99.90;;;;;;5089517;28;20438;-76
2023/03/21 01:55:32;;;;;;;111.70;24.45;;;9.30;99.90;;;;;;5104670;28;20446;-76
2023/03/21 01:58:00;;;;;;;137.10;26.75;;;9.30;99.90;;;;;;5089456;28;20426;-76
2023/03/21 02:00:28;;;;;;;142.25;27.27;;;9.20;99.90;;;;;;5093017;27;20401;-76
2023/03/21 02:02:56;;;;;;;155.85;29.30;;;9.30;99.90;;;;;;5089308;28;20418;-76
2023/03/21 02:05:36;;;;;;;171.73;30.55;;;9.30;99.90;;;;;;5094890;27;20407;-77
2023/03/21 02:08:02;;;;;;;182.88;30.27;;;9.20;99.90;;;;;;5109163;28;20485;-76
2023/03/21 02:10:30;;;;;;;226.77;33.00;;;9.30;99.90;;;;;;5092238;28;20404;-77
2023/03/21 02:13:08;;;;;;;204.77;31.67;;;9.30;99.90;;;;;;5109297;28;20472;-76
2023/03/21 02:15:57;;;;;;;237.90;33.33;;;9.30;99.90;;;;;;5109843;27;20822;-76
2023/03/21 02:18:55;;;;;;;191.17;31.37;;;9.20;99.90;;;;;;5108753;28;20843;-77
2023/03/21 02:21:47;;;;;;;218.77;33.67;;;9.30;99.90;;;;;;5111137;27;20451;-77
2023/03/21 02:24:39;;;;;;;191.38;31.55;;;9.30;99.90;;;;;;5083857;28;20810;-77
2023/03/21 02:27:22;;;;;;;178.77;31.55;;;9.30;99.90;;;;;;5110934;27;20405;-77
2023/03/21 02:30:26;;;;;;;171.32;31.80;;;9.30;99.90;;;;;;5094844;27;20471;-76
2023/03/21 02:33:20;;;;;;;184.38;32.40;;;9.30;99.90;;;;;;5086547;28;20410;-76
2023/03/21 02:36:06;;;;;;;155.20;29.48;;;9.30;99.90;;;;;;5102754;28;20404;-77
2023/03/21 02:38:42;;;;;;;128.00;26.60;;;9.30;99.90;;;;;;5086843;28;20462;-77
2023/03/21 02:41:12;;;;;;;124.38;28.08;;;9.30;99.90;;;;;;5089621;28;20411;-77
2023/03/21 02:43:46;;;;;;;130.25;27.08;;;9.30;99.90;;;;;;5094147;28;20407;-77
2023/03/21 02:46:23;;;;;;;133.93;26.85;;;9.30;99.90;;;;;;5087032;28;20441;-77
2023/03/21 02:49:01;;;;;;;118.82;26.15;;;9.30;99.90;;;;;;5110059;27;20408;-76
2023/03/21 02:51:29;;;;;;;126.82;27.40;;;9.30;99.90;;;;;;5092672;27;20486;-77
2023/03/21 02:54:01;;;;;;;109.03;26.50;;;9.30;99.90;;;;;;5084444;28;20450;-77
2023/03/21 02:56:27;;;;;;;104.40;26.50;;;9.30;99.90;;;;;;5090189;28;20436;-76
2023/03/21 02:58:53;;;;;;;100.60;25.65;;;9.30;99.90;;;;;;5089727;28;20899;-76
2023/03/21 03:01:19;;;;;;;116.88;28.38;;;9.30;99.90;;;;;;5107642;28;20408;-77
2023/03/21 03:03:46;;;;;;;109.68;28.60;;;9.30;99.90;;;;;;5108589;28;20487;-77
2023/03/21 03:06:21;;;;;;;112.15;28.17;;;9.30;99.90;;;;;;5107828;28;20403;-76
2023/03/21 03:09:09;;;;;;;104.57;27.42;;;9.30;99.90;;;;;;5090018;28;20429;-77
2023/03/21 03:11:41;;;;;;;105.50;27.10;;;9.30;99.90;;;;;;5108195;28;20392;-76
2023/03/21 03:14:26;;;;;;;113.75;28.35;;;9.30;99.90;;;;;;5113179;28;20540;-76
2023/03/21 03:17:26;;;;;;;102.65;27.63;;;9.40;99.90;;;;;;5127402;28;20410;-77
2023/03/21 03:20:18;;;;;;;104.63;27.52;;;9.30;99.90;;;;;;5045419;28;20444;-77
2023/03/21 03:23:01;;;;;;;101.15;27.33;;;9.40;99.90;;;;;;5070658;28;20837;-76
2023/03/21 03:25:35;;;;;;;104.15;28.23;;;9.30;99.90;;;;;;5107161;28;20412;-77
2023/03/21 03:28:03;;;;;;;99.85;28.33;;;9.30;99.90;;;;;;5086014;28;20399;-76
2023/03/21 03:30:29;;;;;;;113.15;28.85;;;9.30;99.90;;;;;;5105191;28;20450;-77
2023/03/21 03:33:01;;;;;;;103.60;29.02;;;9.40;99.90;;;;;;5099452;28;20745;-77
2023/03/21 03:35:28;;;;;;;101.75;27.92;;;9.40;99.90;;;;;;5087860;28;20405;-77
2023/03/21 03:37:57;;;;;;;110.22;29.52;;;9.40;99.90;;;;;;5102804;28;20454;-76
2023/03/21 03:40:27;;;;;;;105.55;30.23;;;9.40;99.90;;;;;;5089769;28;20404;-76
2023/03/21 03:42:58;;;;;;;99.93;30.50;;;9.40;99.90;;;;;;5107691;28;20401;-76
2023/03/21 03:45:41;;;;;;;85.97;28.43;;;9.40;99.90;;;;;;5089699;28;20499;-76
2023/03/21 03:48:28;;;;;;;96.03;30.33;;;9.40;99.90;;;;;;5089286;28;20401;-77
2023/03/21 03:51:02;;;;;;;88.05;28.77;;;9.40;99.90;;;;;;5108483;28;20392;-76
2023/03/21 03:53:31;;;;;;;89.78;29.02;;;9.30;99.90;;;;;;5090016;28;20408;-77
2023/03/21 03:55:59;;;;;;;87.70;28.73;;;9.40;99.90;;;;;;5090190;28;20436;-76
2023/03/21 03:58:26;;;;;;;89.38;29.00;;;9.40;99.90;;;;;;5112328;27;20506;-77
2023/03/21 04:00:53;;;;;;;83.88;29.02;;;9.40;99.90;;;;;;5112259;27;20404;-76
2023/03/21 04:03:19;;;;;;;72.80;27.23;;;9.40;99.90;;;;;;5112545;27;20392;-77
2023/03/21 04:05:45;;;;;;;79.23;27.90;;;9.40;99.90;;;;;;5113811;27;20523;-76
2023/03/21 04:08:12;;;;;;;70.20;26.83;;;9.40;99.90;;;;;;5112446;27;20920;-77
2023/03/21 04:10:39;;;;;;;75.22;26.83;;;9.40;99.90;;;;;;5106303;27;20466;-77
2023/03/21 04:13:05;;;;;;;73.95;26.63;;;9.40;99.90;;;;;;5085502;28;20407;-76
2023/03/21 04:15:30;;;;;;;68.32;25.17;;;9.40;99.90;;;;;;5111088;28;20396;-77
2023/03/21 04:17:56;;;;;;;65.03;25.13;;;9.40;99.90;;;;;;5111490;28;20913;-77
2023/03/21 04:20:22;;;;;;;69.32;25.73;;;9.40;99.90;;;;;;5111357;27;20404;-77
2023/03/21 04:22:47;;;;;;;69.10;25.88;;;9.40;99.90;;;;;;5111316;28;20410;-77
2023/03/21 04:25:13;;;;;;;71.67;25.00;;;9.40;99.90;;;;;;5129512;27;20394;-77
2023/03/21 04:27:39;;;;;;;70.60;25.38;;;9.40;99.90;;;;;;5113111;27;20416;-77
2023/03/21 04:30:06;;;;;;;73.55;25.52;;;9.40;99.90;;;;;;5111654;27;20406;-77
2023/03/21 04:32:32;;;;;;;73.75;25.30;;;9.40;99.90;;;;;;5130484;27;20460;-77
2023/03/21 04:35:00;;;;;;;74.07;26.20;;;9.40;99.90;;;;;;5129479;27;20483;-77
2023/03/21 04:37:26;;;;;;;68.30;23.77;;;9.40;99.90;;;;;;5130699;27;20958;-77
2023/03/21 04:39:52;;;;;;;74.17;25.00;;;9.40;99.90;;;;;;5129552;27;20571;-77
2023/03/21 04:42:18;;;;;;;61.88;22.88;;;9.40;99.90;;;;;;5130447;27;20483;-77
2023/03/21 04:44:45;;;;;;;66.03;23.17;;;9.40;99.90;;;;;;5129606;27;20391;-77
2023/03/21 04:47:12;;;;;;;67.65;22.80;;;9.40;99.90;;;;;;5130444;27;20402;-77
2023/03/21 04:49:38;;;;;;;60.13;21.30;;;9.40;99.90;;;;;;5116435;27;20923;-77
2023/03/21 04:52:04;;;;;;;62.63;21.87;;;9.40;99.90;;;;;;5129823;27;20398;-77
2023/03/21 04:54:31;;;;;;;67.25;22.10;;;9.40;99.90;;;;;;5130203;27;20458;-77
2023/03/21 04:56:57;;;;;;;62.17;21.33;;;9.40;99.90;;;;;;5129836;27;20433;-76
2023/03/21 04:59:23;;;;;;;62.80;19.92;;;9.40;99.90;;;;;;5104639;27;20437;-76
2023/03/21 05:01:49;;;;;;;58.53;19.87;;;9.40;99.90;;;;;;5098093;28;20408;-76
2023/03/21 05:04:15;;;;;;;52.70;18.93;;;9.40;99.90;;;;;;5110855;28;20400;-76
2023/03/21 05:06:41;;;;;;;53.73;18.83;;;9.40;99.90;;;;;;5109875;28;20963;-76
2023/03/21 05:09:07;;;;;;;49.78;19.00;;;9.40;99.90;;;;;;5110116;28;20400;-76
2023/03/21 05:11:36;;;;;;;54.67;19.33;;;9.40;99.90;;;;;;5091739;28;20411;-76
2023/03/21 05:14:06;;;;;;;48.88;18.35;;;9.40;99.90;;;;;;5097290;28;21567;-77
2023/03/21 05:16:33;;;;;;;52.33;17.80;;;9.40;99.90;;;;;;5079467;27;20410;-77
2023/03/21 05:19:02;;;;;;;48.05;17.95;;;9.40;99.90;;;;;;5130269;27;20422;-76
2023/03/21 05:21:33;;;;;;;48.08;17.77;;;9.40;99.90;;;;;;5114367;27;20864;-77
2023/03/21 05:24:02;;;;;;;46.45;17.27;;;9.40;99.90;;;;;;5110399;28;20397;-76
2023/03/21 05:26:28;;;;;;;44.00;16.85;;;9.40;99.90;;;;;;5091547;28;20408;-77
2023/03/21 05:28:54;;;;;;;43.03;16.48;;;9.40;99.90;;;;;;5109498;28;20905;-75
2023/03/21 05:31:20;;;;;;;42.83;16.48;;;9.40;99.90;;;;;;5079670;27;20407;-76
2023/03/21 05:33:46;;;;;;;43.42;15.77;;;9.40;99.90;;;;;;5088266;28;20974;-76
2023/03/21 05:36:13;;;;;;;44.27;16.03;;;9.40;99.90;;;;;;5079129;27;20404;-76
2023/03/21 05:38:44;;;;;;;46.33;17.33;;;9.40;99.90;;;;;;5109991;28;20442;-76
2023/03/21 05:41:11;;;;;;;41.00;16.23;;;9.40;99.90;;;;;;5091058;28;20405;-77
2023/03/21 05:43:36;;;;;;;44.28;16.08;;;9.40;99.90;;;;;;5088158;28;20487;-77
2023/03/21 05:46:02;;;;;;;44.85;16.65;;;9.40;99.90;;;;;;5106437;28;20838;-77
2023/03/21 05:48:27;;;;;;;48.80;17.20;;;9.40;99.90;;;;;;5111151;27;20396;-76
2023/03/21 05:50:53;;;;;;;49.85;17.85;;;9.40;99.90;;;;;;5092726;27;20402;-76
2023/03/21 05:53:19;;;;;;;47.13;16.93;;;9.40;99.90;;;;;;5088709;28;20398;-77
2023/03/21 05:55:44;;;;;;;51.83;17.23;;;9.40;99.90;;;;;;5081371;27;21014;-76
2023/03/21 05:58:10;;;;;;;52.72;17.73;;;9.50;99.90;;;;;;5090389;28;20511;-75
2023/03/21 06:00:36;;;;;;;51.73;17.33;;;9.50;99.90;;;;;;5091398;27;20429;-75
2023/03/21 06:03:01;;;;;;;46.67;16.98;;;9.40;99.90;;;;;;5110236;27;20392;-75
2023/03/21 06:05:27;;;;;;;46.40;16.97;;;9.40;99.90;;;;;;5109694;27;20395;-76
2023/03/21 06:07:52;;;;;;;48.53;17.17;;;9.50;99.90;;;;;;5110100;27;20388;-76
2023/03/21 06:10:18;;;;;;;49.13;16.90;;;9.50;99.90;;;;;;5108392;28;20905;-76
2023/03/21 06:12:44;;;;;;;57.13;17.88;;;9.40;99.90;;;;;;5109041;28;20400;-75
2023/03/21 06:15:13;;;;;;;52.20;17.15;;;9.50;99.90;;;;;;5109113;28;20392;-76
2023/03/21 06:17:38;;;;;;;54.07;17.03;;;9.50;99.90;;;;;;5109517;28;20403;-76
2023/03/21 06:20:05;;;;;;;61.00;17.60;;;9.50;99.90;;;;;;5108192;28;20777;-76
2023/03/21 06:22:32;;;;;;;55.10;17.45;;;9.50;99.90;;;;;;5090390;28;20483;-76
2023/03/21 06:24:58;;;;;;;56.47;17.50;;;9.50;99.90;;;;;;5108418;28;20503;-76
2023/03/21 06:27:24;;;;;;;48.47;16.77;;;9.50;99.90;;;;;;5087431;28;20787;-76
2023/03/21 06:29:50;;;;;;;53.70;17.85;;;9.50;99.90;;;;;;5107552;27;20396;-76
2023/03/21 06:32:15;;;;;;;46.28;16.80;;;9.50;99.90;;;;;;5108816;27;20396;-76
2023/03/21 06:34:42;;;;;;;44.33;16.23;;;9.50;99.90;;;;;;5108349;28;20400;-76
2023/03/21 06:37:08;;;;;;;46.00;16.52;;;9.50;99.90;;;;;;5091352;28;20842;-76
2023/03/21 06:39:34;;;;;;;47.08;16.48;;;9.50;99.90;;;;;;5109677;27;20420;-77
2023/03/21 06:42:00;;;;;;;45.72;16.15;;;9.60;99.90;;;;;;5108806;28;20404;-76
2023/03/21 06:44:26;;;;;;;45.80;16.03;;;9.60;99.90;;;;;;5088542;28;20784;-76
2023/03/21 06:46:52;;;;;;;42.70;16.00;;;9.50;99.90;;;;;;5100306;27;20400;-76
2023/03/21 06:49:19;;;;;;;48.80;16.55;;;9.50;99.90;;;;;;5109432;27;20909;-76
2023/03/21 06:51:45;;;;;;;46.78;16.65;;;9.60;99.90;;;;;;5108925;27;20526;-75
2023/03/21 06:54:11;;;;;;;46.53;16.88;;;9.60;99.90;;;;;;5108294;27;20488;-74
2023/03/21 06:56:36;;;;;;;45.42;16.20;;;9.60;99.90;;;;;;5089152;28;20404;-75
2023/03/21 06:59:02;;;;;;;46.60;16.30;;;9.60;99.90;;;;;;5108293;28;20420;-74
2023/03/21 07:01:29;;;;;;;51.35;18.13;;;9.60;99.90;;;;;;5104953;27;20775;-75
2023/03/21 07:03:57;;;;;;;48.50;17.40;;;9.60;99.90;;;;;;5082473;28;20773;-75
2023/03/21 07:06:25;;;;;;;51.08;17.75;;;9.60;99.90;;;;;;5101294;28;20425;-75
2023/03/21 07:08:52;;;;;;;44.10;17.35;;;9.60;99.90;;;;;;5088110;28;20420;-76
2023/03/21 07:11:18;;;;;;;47.63;17.67;;;9.70;99.90;;;;;;5100048;28;20416;-75
2023/03/21 07:13:44;;;;;;;46.70;17.25;;;9.70;99.90;;;;;;5075996;28;20419;-75
2023/03/21 07:16:10;;;;;;;47.60;17.45;;;9.70;99.90;;;;;;5086166;28;20967;-76
2023/03/21 07:18:35;;;;;;;47.27;16.57;;;9.70;99.90;;;;;;5114660;28;20514;-76
2023/03/21 07:21:02;;;;;;;47.00;17.40;;;9.70;99.90;;;;;;5127414;28;20405;-76
2023/03/21 07:23:27;;;;;;;42.58;16.02;;;9.70;99.90;;;;;;5078269;28;20418;-76
2023/03/21 07:25:54;;;;;;;44.60;16.57;;;9.70;99.90;;;;;;5084495;28;20441;-76
2023/03/21 07:28:20;;;;;;;38.00;15.63;;;9.70;99.90;;;;;;5064285;28;20414;-76
2023/03/21 07:30:52;;;;;;;40.50;15.95;;;9.70;99.90;;;;;;5072439;28;20492;-76
2023/03/21 07:33:18;;;;;;;43.58;17.35;;;9.70;99.90;;;;;;5115116;27;20405;-76
2023/03/21 07:35:44;;;;;;;47.10;16.33;;;9.70;99.90;;;;;;5115500;27;20392;-76
2023/03/21 07:38:09;;;;;;;44.30;16.42;;;9.70;99.90;;;;;;5118047;27;20426;-76
2023/03/21 07:40:35;;;;;;;46.93;16.87;;;9.70;99.90;;;;;;5091597;27;20425;-76
2023/03/21 07:43:00;;;;;;;39.15;16.05;;;9.80;99.90;;;;;;5110964;27;20434;-76
2023/03/21 07:45:26;;;;;;;45.60;16.97;;;9.80;99.90;;;;;;5089673;28;20427;-76
2023/03/21 07:47:53;;;;;;;39.17;15.60;;;9.80;99.90;;;;;;5116893;27;20402;-76
2023/03/21 07:50:19;;;;;;;41.97;16.17;;;9.80;99.90;;;;;;5113541;27;20917;-76
2023/03/21 07:52:46;;;;;;;39.78;15.52;;;9.80;99.90;;;;;;5111140;27;20451;-76
2023/03/21 07:55:12;;;;;;;37.85;15.63;;;9.90;99.90;;;;;;5111427;28;20404;-76
2023/03/21 07:57:37;;;;;;;42.50;15.73;;;9.90;99.90;;;;;;5110514;28;20419;-76
2023/03/21 08:00:05;;;;;;;36.37;14.97;;;9.90;99.90;;;;;;5111411;27;20420;-76
2023/03/21 08:02:31;;;;;;;36.40;15.43;;;9.90;99.90;;;;;;5111034;27;20507;-76
2023/03/21 08:04:57;;;;;;;34.10;14.35;;;9.90;99.90;;;;;;5093525;28;20812;-76
2023/03/21 08:07:23;;;;;;;29.05;13.50;;;9.90;99.90;;;;;;5110250;27;20423;-76
2023/03/21 08:09:48;;;;;;;31.60;13.50;;;9.90;99.90;;;;;;5111407;27;20396;-76
2023/03/21 08:12:14;;;;;;;32.47;14.02;;;9.90;99.90;;;;;;5116051;27;20414;-76
2023/03/21 08:14:39;;;;;;;32.73;13.83;;;10.00;99.90;;;;;;5119309;27;20550;-76
2023/03/21 08:17:05;;;;;;;25.02;11.82;;;10.00;99.90;;;;;;5110460;28;20431;-76
2023/03/21 08:19:32;;;;;;;28.38;12.45;;;10.00;99.90;;;;;;5110732;28;20432;-76
2023/03/21 08:22:01;;;;;;;25.75;12.70;;;10.00;99.90;;;;;;5110666;27;20909;-76
2023/03/21 08:24:27;;;;;;;26.45;12.23;;;10.10;99.90;;;;;;5110829;28;20392;-76
2023/03/21 08:26:53;;;;;;;24.75;11.88;;;10.00;99.90;;;;;;5109830;28;20411;-76
2023/03/21 08:29:20;;;;;;;28.58;12.25;;;10.00;99.90;;;;;;5110887;28;20767;-76
2023/03/21 08:31:46;;;;;;;21.70;10.02;;;10.00;99.90;;;;;;5109801;27;20438;-76
2023/03/21 08:34:12;;;;;;;21.92;10.75;;;10.10;99.90;;;;;;5110921;27;20420;-76
2023/03/21 08:36:38;;;;;;;21.75;10.88;;;10.00;99.90;;;;;;5110523;27;20923;-76
2023/03/21 08:39:05;;;;;;;21.10;10.37;;;10.10;99.90;;;;;;5110488;28;20432;-76
2023/03/21 08:41:35;;;;;;;16.15;9.50;;;10.10;99.90;;;;;;5110119;27;20507;-76
2023/03/21 08:44:01;;;;;;;15.95;8.45;;;10.10;99.90;;;;;;5110063;28;20415;-76
2023/03/21 08:46:28;;;;;;;17.45;8.88;;;10.10;99.90;;;;;;5112962;27;20412;-76
2023/03/21 08:48:53;;;;;;;15.57;8.25;;;10.10;99.90;;;;;;5109855;27;20452;-75
2023/03/21 08:51:19;;;;;;;14.03;8.40;;;10.10;99.90;;;;;;5109843;28;20479;-76
2023/03/21 08:53:45;;;;;;;15.70;8.57;;;10.10;99.90;;;;;;5110011;27;20846;-76
2023/03/21 08:56:11;;;;;;;15.50;7.97;;;10.10;99.90;;;;;;5087957;27;20488;-76
2023/03/21 08:58:37;;;;;;;14.77;7.90;;;10.10;99.90;;;;;;5109336;27;20789;-76
2023/03/21 09:01:05;;;;;;;15.02;8.13;;;10.20;99.90;;;;;;5074693;28;20969;-76
2023/03/21 09:03:31;;;;;;;13.95;7.70;;;10.20;99.90;;;;;;5109603;28;20499;-76
2023/03/21 09:05:57;;;;;;;13.05;7.10;;;10.20;99.90;;;;;;5110167;28;20488;-76
2023/03/21 09:08:23;;;;;;;13.27;7.73;;;10.20;99.90;;;;;;5109614;27;20412;-76
2023/03/21 09:10:52;;;;;;;12.50;7.33;;;10.20;99.90;;;;;;5091897;28;20423;-76
2023/03/21 09:13:18;;;;;;;13.18;7.40;;;10.20;99.90;;;;;;5091083;28;21323;-75
2023/03/21 09:15:44;;;;;;;13.65;7.57;;;10.20;99.90;;;;;;5109949;28;20476;-76
2023/03/21 09:18:20;;;;;;;12.57;6.95;;;10.20;99.90;;;;;;5109493;27;20440;-75
2023/03/21 09:20:49;;;;;;;12.93;7.00;;;10.20;99.90;;;;;;5109652;27;20412;-75
2023/03/21 09:23:15;;;;;;;10.98;6.45;;;10.20;99.90;;;;;;5101295;28;20408;-76
2023/03/21 09:25:41;;;;;;;11.48;6.60;;;10.20;99.90;;;;;;5108110;28;20408;-76
2023/03/21 09:28:07;;;;;;;10.57;6.13;;;10.20;99.90;;;;;;5107474;28;20415;-75
2023/03/21 09:30:35;;;;;;;10.07;6.00;;;10.20;99.90;;;;;;5104158;28;20770;-75
2023/03/21 09:33:05;;;;;;;9.30;5.70;;;10.20;99.90;;;;;;5112312;27;20391;-75
2023/03/21 09:35:31;;;;;;;10.68;6.78;;;10.20;99.90;;;;;;5107748;28;20400;-76
2023/03/21 09:37:57;;;;;;;10.77;7.00;;;10.20;99.90;;;;;;5109205;27;20458;-76
2023/03/21 09:40:46;;;;;;;11.30;7.60;;;10.20;99.90;;;;;;5108163;27;20414;-76
2023/03/21 09:43:31;;;;;;;14.30;9.18;;;10.20;99.90;;;;;;5106387;28;20790;-76
2023/03/21 09:46:29;;;;;;;14.70;9.65;;;10.20;99.90;;;;;;5107962;28;20412;-76
2023/03/21 09:48:59;;;;;;;14.20;8.93;;;10.20;99.90;;;;;;5071793;27;20489;-76
2023/03/21 09:51:31;;;;;;;14.88;9.55;;;10.20;99.90;;;;;;5111009;27;20411;-76
2023/03/21 09:54:02;;;;;;;14.38;8.95;;;10.20;99.90;;;;;;5109190;28;20396;-75
2023/03/21 09:56:29;;;;;;;16.90;9.32;;;10.20;99.90;;;;;;5109342;28;21160;-75
2023/03/21 09:58:58;;;;;;;15.15;9.70;;;10.20;99.90;;;;;;5109825;27;20505;-75
2023/03/21 10:01:31;;;;;;;16.83;10.40;;;10.20;99.90;;;;;;5108874;28;20886;-75
2023/03/21 10:04:03;;;;;;;19.50;10.88;;;10.20;99.90;;;;;;5112167;27;20522;-76
2023/03/21 10:06:30;;;;;;;17.52;10.85;;;10.20;99.90;;;;;;5110280;27;20865;-76
2023/03/21 10:09:05;;;;;;;20.30;12.05;;;10.10;99.90;;;;;;5094067;28;21254;-75
2023/03/21 10:11:42;;;;;;;18.93;11.67;;;10.20;99.90;;;;;;5108990;27;20411;-76
2023/03/21 10:14:27;;;;;;;19.03;11.53;;;10.10;99.90;;;;;;5108981;28;20532;-76
2023/03/21 10:17:20;;;;;;;21.48;12.50;;;10.20;99.90;;;;;;5090033;28;20433;-76
2023/03/21 10:19:49;;;;;;;19.63;12.32;;;10.20;99.90;;;;;;5108440;27;20519;-75
2023/03/21 10:22:15;;;;;;;22.80;13.17;;;10.20;99.90;;;;;;5096436;27;20397;-76
2023/03/21 10:24:41;;;;;;;19.97;13.20;;;10.20;99.90;;;;;;5108860;27;20416;-76
2023/03/21 10:27:08;;;;;;;19.97;12.40;;;10.30;99.90;;;;;;5090415;28;20430;-76
2023/03/21 10:29:42;;;;;;;21.85;12.85;;;10.30;99.90;;;;;;5078426;28;20402;-76
2023/03/21 10:32:14;;;;;;;20.33;12.18;;;10.20;99.90;;;;;;5086363;28;20426;-76
2023/03/21 10:34:51;;;;;;;21.48;13.32;;;10.20;99.90;;;;;;5089609;28;21121;-76
2023/03/21 10:37:17;;;;;;;20.98;13.35;;;10.20;99.90;;;;;;5108987;28;20396;-76
2023/03/21 10:39:47;;;;;;;22.95;13.88;;;10.20;99.90;;;;;;5107223;28;20533;-76
2023/03/21 10:42:23;;;;;;;21.50;13.73;;;10.10;99.90;;;;;;5108570;28;20948;-75
2023/03/21 10:44:55;;;;;;;21.73;13.45;;;10.10;99.90;;;;;;5106433;28;20412;-76
2023/03/21 10:47:26;;;;;;;24.83;14.77;;;10.10;99.90;;;;;;5108384;27;21921;-75
2023/03/21 10:49:51;;;;;;;21.88;14.48;;;10.10;99.90;;;;;;5108480;28;20406;-75
2023/03/21 10:52:21;;;;;;;23.77;14.97;;;10.10;99.90;;;;;;5108566;27;20422;-76
2023/03/21 10:54:47;;;;;;;25.98;15.73;;;10.00;99.90;;;;;;5073151;28;20522;-76
2023/03/21 10:57:20;;;;;;;27.75;17.23;;;10.00;99.90;;;;;;5108250;27;20412;-76
2023/03/21 10:59:54;;;;;;;31.67;19.05;;;10.00;99.90;;;;;;5089694;28;20779;-76
2023/03/21 11:02:31;;;;;;;31.07;19.43;;;10.00;99.90;;;;;;5107814;28;20444;-76
2023/03/21 11:05:07;;;;;;;32.50;20.05;;;10.00;99.90;;;;;;5084661;28;20425;-76
2023/03/21 11:07:35;;;;;;;35.15;20.45;;;10.00;99.90;;;;;;5089088;28;20465;-76
2023/03/21 11:10:25;;;;;;;31.85;20.77;;;10.00;99.90;;;;;;5107178;28;20415;-76
2023/03/21 11:12:55;;;;;;;34.17;22.08;;;10.00;99.90;;;;;;5106699;28;20427;-76
2023/03/21 11:15:39;;;;;;;36.45;21.00;;;10.00;99.90;;;;;;5108153;28;20769;-77
2023/03/21 11:18:23;;;;;;;33.13;20.60;;;10.10;99.90;;;;;;5106958;28;20416;-76
2023/03/21 11:21:03;;;;;;;33.10;21.47;;;10.10;99.90;;;;;;5079166;28;20416;-74
2023/03/21 11:23:31;;;;;;;28.10;19.17;;;10.10;99.90;;;;;;5072733;28;20450;-74
2023/03/21 11:26:00;;;;;;;31.27;19.40;;;10.20;99.90;;;;;;5089213;28;20436;-74
2023/03/21 11:28:33;;;;;;;25.92;19.02;;;10.30;99.90;;;;;;5107946;28;20465;-73
2023/03/21 11:31:02;;;;;;;33.58;20.75;;;10.30;99.90;;;;;;5108134;28;20400;-74
2023/03/21 11:33:35;;;;;;;30.35;20.40;;;10.40;99.90;;;;;;5106142;28;20492;-74
2023/03/21 11:36:06;;;;;;;28.98;18.60;;;10.40;99.90;;;;;;5106422;28;20426;-74
2023/03/21 11:38:36;;;;;;;28.60;18.23;;;10.60;99.90;;;;;;5107619;28;20540;-74
2023/03/21 11:41:03;;;;;;;26.80;17.73;;;10.60;99.90;;;;;;5083169;28;21335;-74
2023/03/21 11:43:36;;;;;;;25.02;16.27;;;10.60;99.90;;;;;;5103651;28;20422;-74
2023/03/21 11:46:12;;;;;;;26.15;15.25;;;10.70;99.90;;;;;;5101605;28;20400;-74
2023/03/21 11:48:43;;;;;;;23.55;14.93;;;10.70;99.90;;;;;;5102193;28;20418;-74
2023/03/21 11:51:52;;;;;;;20.95;14.25;;;10.70;99.90;;;;;;5104764;28;20413;-74
2023/03/21 11:54:27;;;;;;;20.05;13.50;;;10.70;99.90;;;;;;5104169;28;20468;-74
2023/03/21 11:57:00;;;;;;;22.83;14.60;;;10.70;99.90;;;;;;5100878;28;20411;-74
2023/03/21 11:59:34;;;;;;;21.80;13.50;;;10.80;99.90;;;;;;5084852;28;21176;-74
2023/03/21 12:02:26;;;;;;;21.42;13.15;;;10.90;99.90;;;;;;5069105;28;20485;-74
2023/03/21 12:04:53;;;;;;;19.20;12.87;;;11.00;99.90;;;;;;5100165;28;20449;-74
2023/03/21 12:07:37;;;;;;;17.75;11.82;;;11.10;99.90;;;;;;5103955;28;20439;-74
2023/03/21 12:10:27;;;;;;;17.98;11.32;;;11.20;99.90;;;;;;5102657;28;20416;-74
2023/03/21 12:12:55;;;;;;;16.45;11.20;;;11.40;99.90;;;;;;5102961;28;20753;-74
2023/03/21 12:15:33;;;;;;;16.20;10.50;;;11.50;99.90;;;;;;5106098;28;20400;-74
2023/03/21 12:18:15;;;;;;;17.25;10.00;;;11.60;99.90;;;;;;5107716;28;20913;-74
2023/03/21 12:20:57;;;;;;;15.80;9.68;;;11.70;99.90;;;;;;5101835;27;20412;-74
2023/03/21 12:23:35;;;;;;;17.38;9.90;;;11.70;99.90;;;;;;5109490;28;21117;-74
2023/03/21 12:26:22;;;;;;;16.67;9.57;;;11.80;99.90;;;;;;5110645;28;20397;-74
2023/03/21 12:28:50;;;;;;;16.48;9.68;;;11.90;99.90;;;;;;5110099;27;20424;-74
2023/03/21 12:31:28;;;;;;;15.25;8.90;;;11.90;99.90;;;;;;5093345;27;20424;-74
2023/03/21 12:34:27;;;;;;;14.00;9.53;;;11.90;99.90;;;;;;5110206;27;20431;-74
2023/03/21 12:37:07;;;;;;;15.03;9.43;;;11.90;99.90;;;;;;5090377;28;20430;-74
2023/03/21 12:39:35;;;;;;;13.90;8.52;;;11.80;99.90;;;;;;5093958;27;20420;-74
2023/03/21 12:42:01;;;;;;;16.55;9.55;;;11.80;99.90;;;;;;5089531;28;20433;-73
2023/03/21 12:44:32;;;;;;;14.77;8.97;;;11.70;99.90;;;;;;5089567;28;20416;-73
2023/03/21 12:47:03;;;;;;;17.52;8.75;;;11.70;99.90;;;;;;5110399;27;20439;-73
2023/03/21 12:49:41;;;;;;;14.75;8.70;;;11.70;99.90;;;;;;5092166;28;20411;-73
2023/03/21 12:52:12;;;;;;;15.38;8.10;;;11.70;99.90;;;;;;5091905;28;20428;-73